Kalaeloa (John Rodgers Field) Airport Kapolei US
ICAO: PHJR
IATA:
Category: Medium
Scheduled Services:

Elevation: 30 ft
TransAlt. 18000 ft.

Airport Communications:
HONOLULU APP/DEP:118.3
ATIS:119.8
CLNC DEL:121.7
CTAF:132.6
GND:123.8
TWR:132.6

PHJR Zoom In..

Runways:

(A) RW 04L length 4500 ft width 200 ft
---- / hdg 44

(B) RW 04R length 8000 ft width 200 ft
---- / hdg 44

(C) RW 11 length 6000 ft width 200 ft
---- / hdg 108

(D) RW 22L length 8000 ft width 200 ft
---- / hdg 224

(E) RW 22R length 4500 ft width 200 ft
---- / hdg 224

(F) RW 29 length 6000 ft width 200 ft
---- / hdg 288

Location; PHJR
Day. 26 / Time. 09.53 Zulu
* Altimeter: 30.08
* Temperature: 23° c. 73.4°f.
* Wind from: 060° Speed 03 kn.
Dewpoint: 19° c.
Visibility: 10 Statute Miles.
Clouds: Few 5500 ft.
Clouds: Scattered 7500 ft.

PHJR 260953Z 06003KT 10SM FEW055 SCT075 23/19 A3008 RMK AO2 SLP193 T02280194 402890183


Wind From 060°
Speed 03 kn.

 
 
jpsmedia worldairports.se 2020   terms of use